Time;durP1;ratioP1;P1;durP2;ratioP2;P2;SDS_P1;SDS_P2;PMS_P1;PMS_P2;Temp;Humidity;BMP_temperature;BMP_pressure;BME280_temperature;BME280_humidity;BME280_pressure;Samples;Min_cycle;Max_cycle;Signal;HPM_P1;HPM_P2
2021/03/17 00:00:41;;;;;;;5.57;3.95;;;6.80;92.00;14.10;99458.00;;;;5041280;28;20247;-70
2021/03/17 00:03:07;;;;;;;5.30;3.10;;;6.90;92.00;14.20;99458.00;;;;5068728;28;20185;-71
2021/03/17 00:05:35;;;;;;;5.68;3.95;;;6.80;92.00;14.40;99462.00;;;;5065605;28;20218;-71
2021/03/17 00:08:01;;;;;;;8.82;4.13;;;6.80;92.00;14.20;99451.00;;;;5049948;28;20443;-69
2021/03/17 00:10:30;;;;;;;4.57;3.40;;;6.80;92.00;14.00;99456.00;;;;5031773;28;20503;-70
2021/03/17 00:12:56;;;;;;;10.98;3.85;;;6.80;91.90;14.00;99448.00;;;;5032599;28;20719;-69
2021/03/17 00:15:24;;;;;;;6.78;3.75;;;6.80;91.90;14.10;99456.00;;;;5031995;28;20206;-70
2021/03/17 00:17:50;;;;;;;5.80;3.65;;;6.80;91.90;14.10;99447.00;;;;5049995;28;20216;-70
2021/03/17 00:20:17;;;;;;;7.43;4.27;;;6.80;91.90;13.90;99458.00;;;;5049079;28;20206;-70
2021/03/17 00:22:42;;;;;;;5.10;3.90;;;6.80;92.00;14.20;99454.00;;;;5049226;28;20174;-70
2021/03/17 00:25:09;;;;;;;7.10;4.50;;;6.80;92.00;14.20;99445.00;;;;5049133;28;20186;-70
2021/03/17 00:27:35;;;;;;;6.00;3.80;;;6.80;91.90;14.10;99440.00;;;;5050118;28;20423;-70
2021/03/17 00:30:00;;;;;;;5.03;3.70;;;6.80;91.90;14.20;99433.00;;;;5031819;28;20676;-70
2021/03/17 00:32:26;;;;;;;5.30;3.83;;;6.80;91.90;14.00;99440.00;;;;5016789;28;20193;-70
2021/03/17 00:34:52;;;;;;;7.13;4.27;;;6.80;91.90;14.20;99437.00;;;;5049031;28;20932;-71
2021/03/17 00:37:18;;;;;;;6.80;3.92;;;6.80;91.90;13.90;99440.00;;;;5015772;28;20454;-70
2021/03/17 00:39:44;;;;;;;6.33;4.07;;;6.80;91.90;14.10;99443.00;;;;5048822;28;20526;-69
2021/03/17 00:42:10;;;;;;;6.90;4.53;;;6.80;91.90;14.00;99441.00;;;;5049543;28;20290;-70
2021/03/17 00:44:36;;;;;;;5.63;3.78;;;6.80;91.90;14.00;99434.00;;;;5047867;28;20170;-72
2021/03/17 00:47:02;;;;;;;5.40;3.75;;;6.80;91.90;14.40;99438.00;;;;5016306;28;20202;-70
2021/03/17 00:49:27;;;;;;;8.47;3.80;;;6.80;92.00;14.20;99443.00;;;;5031619;28;20189;-70
2021/03/17 00:51:53;;;;;;;6.80;4.63;;;6.80;91.90;13.80;99432.00;;;;5050193;28;20622;-70
2021/03/17 00:54:19;;;;;;;4.80;3.20;;;6.80;91.90;14.30;99430.00;;;;5032440;28;20576;-70
2021/03/17 00:56:45;;;;;;;5.75;4.00;;;6.80;92.00;14.20;99441.00;;;;5031786;28;20287;-70
2021/03/17 00:59:11;;;;;;;5.70;4.00;;;6.80;92.00;14.10;99429.00;;;;5049669;28;20647;-70
2021/03/17 01:01:36;;;;;;;4.70;3.40;;;6.80;91.90;14.10;99431.00;;;;5032009;28;20202;-70
2021/03/17 01:04:02;;;;;;;6.10;3.73;;;6.80;91.90;14.20;99427.00;;;;5031237;28;20186;-70
2021/03/17 01:06:28;;;;;;;5.67;4.07;;;6.80;91.90;14.10;99415.00;;;;5047871;28;20288;-69
2021/03/17 01:08:54;;;;;;;5.83;3.90;;;6.80;92.00;14.10;99424.00;;;;5049742;28;20221;-70
2021/03/17 01:11:19;;;;;;;5.57;3.93;;;6.70;91.90;14.10;99414.00;;;;5047867;28;20221;-69
2021/03/17 01:13:45;;;;;;;5.47;3.90;;;6.70;91.80;13.90;99412.00;;;;5016218;28;20182;-71
2021/03/17 01:16:11;;;;;;;8.00;4.27;;;6.80;91.90;14.00;99420.00;;;;5031780;28;20198;-71
2021/03/17 01:18:36;;;;;;;4.80;3.40;;;6.70;91.80;13.90;99415.00;;;;5031472;28;20599;-70
2021/03/17 01:21:03;;;;;;;4.63;3.37;;;6.70;91.90;13.90;99410.00;;;;5015071;28;20205;-70
2021/03/17 01:23:28;;;;;;;4.90;3.50;;;6.80;91.90;14.10;99409.00;;;;5050433;28;20228;-68
2021/03/17 01:25:54;;;;;;;5.63;3.97;;;6.70;91.90;14.00;99413.00;;;;5047545;28;20205;-69
2021/03/17 01:28:20;;;;;;;5.40;3.90;;;6.70;91.90;13.80;99399.00;;;;5048996;28;20174;-69
2021/03/17 01:30:51;;;;;;;6.17;3.77;;;6.70;91.80;14.00;99406.00;;;;5030840;28;20214;-70
2021/03/17 01:33:17;;;;;;;5.90;3.75;;;6.70;91.80;13.90;99390.00;;;;5048264;28;20406;-70
2021/03/17 01:35:47;;;;;;;5.95;4.03;;;6.70;91.80;13.90;99376.00;;;;5015262;28;20234;-70
2021/03/17 01:38:13;;;;;;;4.90;3.42;;;6.70;91.80;14.10;99401.00;;;;5016544;28;20235;-70
2021/03/17 01:40:40;;;;;;;7.00;4.20;;;6.70;91.80;14.00;99399.00;;;;5047688;28;20206;-71
2021/03/17 01:43:06;;;;;;;4.70;3.38;;;6.70;91.80;13.90;99400.00;;;;5032415;28;20186;-71
2021/03/17 01:45:32;;;;;;;5.30;3.40;;;6.70;91.80;13.90;99403.00;;;;5047426;28;20206;-71
2021/03/17 01:47:58;;;;;;;5.63;3.67;;;6.70;91.80;14.00;99404.00;;;;5031987;28;20178;-71
2021/03/17 01:50:32;;;;;;;6.63;3.50;;;6.70;91.80;14.20;99391.00;;;;5031393;28;20306;-71
2021/03/17 01:53:16;;;;;;;5.75;3.47;;;6.70;91.90;14.20;99390.00;;;;5016795;28;20177;-70
2021/03/17 01:55:42;;;;;;;6.13;4.03;;;6.70;91.90;14.00;99380.00;;;;5018154;28;20228;-69
2021/03/17 01:58:08;;;;;;;5.93;4.05;;;6.70;91.90;13.90;99387.00;;;;5015373;28;20261;-69
2021/03/17 02:00:34;;;;;;;4.97;3.75;;;6.70;91.80;13.90;99380.00;;;;5048412;28;20206;-69
2021/03/17 02:03:00;;;;;;;5.80;4.10;;;6.70;91.80;13.90;99380.00;;;;5032059;28;20187;-70
2021/03/17 02:05:32;;;;;;;5.40;3.70;;;6.70;91.90;13.80;99366.00;;;;5030911;28;20487;-70
2021/03/17 02:08:02;;;;;;;6.32;3.50;;;6.70;91.90;14.20;99378.00;;;;5048011;28;20186;-69
2021/03/17 02:10:28;;;;;;;6.68;4.28;;;6.70;91.90;13.90;99372.00;;;;5015587;28;20565;-69
2021/03/17 02:13:18;;;;;;;5.23;4.20;;;6.70;91.90;14.00;99372.00;;;;5064984;28;20193;-69
2021/03/17 02:16:15;;;;;;;5.53;3.67;;;6.70;91.90;13.90;99380.00;;;;5048102;28;20209;-69
2021/03/17 02:19:10;;;;;;;6.47;3.90;;;6.60;91.80;13.80;99376.00;;;;5052825;28;20704;-69
2021/03/17 02:22:00;;;;;;;6.07;4.28;;;6.70;91.90;13.90;99368.00;;;;5068139;28;20202;-69
2021/03/17 02:24:38;;;;;;;7.10;4.78;;;6.60;91.80;14.10;99366.00;;;;5053303;28;20178;-69
2021/03/17 02:27:43;;;;;;;8.25;4.20;;;6.70;91.90;14.00;99370.00;;;;5035763;28;20221;-69
2021/03/17 02:30:33;;;;;;;6.60;4.63;;;6.60;91.80;13.90;99369.00;;;;5034745;28;20700;-69
2021/03/17 02:33:46;;;;;;;6.55;4.35;;;6.60;91.80;13.80;99368.00;;;;5051696;28;20186;-69
2021/03/17 02:36:52;;;;;;;5.65;3.95;;;6.60;91.80;13.80;99369.00;;;;5038652;28;20222;-69
2021/03/17 02:39:27;;;;;;;5.40;3.80;;;6.60;91.80;13.80;99365.00;;;;5053435;28;20547;-69
2021/03/17 02:42:29;;;;;;;7.25;4.40;;;6.60;91.80;13.90;99363.00;;;;5050650;28;20197;-69
2021/03/17 02:45:05;;;;;;;6.40;4.38;;;6.70;91.90;14.10;99368.00;;;;5027305;28;20675;-69
2021/03/17 02:47:37;;;;;;;7.07;4.78;;;6.60;91.80;13.90;99365.00;;;;5052871;28;20583;-69
2021/03/17 02:50:04;;;;;;;6.57;4.13;;;6.60;91.80;13.90;99369.00;;;;5034754;28;20277;-69
2021/03/17 02:52:38;;;;;;;5.90;4.40;;;6.60;91.80;14.00;99371.00;;;;5051222;28;20675;-69
2021/03/17 02:55:05;;;;;;;6.22;4.22;;;6.60;91.80;14.10;99364.00;;;;5018986;28;20174;-69
2021/03/17 02:57:33;;;;;;;6.80;4.00;;;6.70;91.90;13.90;99366.00;;;;5018017;28;20182;-69
2021/03/17 02:59:59;;;;;;;6.93;4.40;;;6.60;91.80;13.80;99359.00;;;;5035007;28;20212;-69
2021/03/17 03:02:25;;;;;;;5.90;4.63;;;6.60;91.80;14.10;99365.00;;;;5034154;28;20179;-72
2021/03/17 03:04:51;;;;;;;6.30;4.90;;;6.60;91.80;14.10;99357.00;;;;5051034;28;20182;-70
2021/03/17 03:07:17;;;;;;;6.30;4.07;;;6.60;91.80;14.00;99356.00;;;;5034396;28;20186;-70
2021/03/17 03:09:43;;;;;;;6.53;4.37;;;6.60;91.80;13.90;99360.00;;;;5050966;28;20292;-70
2021/03/17 03:12:19;;;;;;;6.50;4.63;;;6.60;91.80;14.00;99355.00;;;;5018044;28;20519;-72
2021/03/17 03:14:44;;;;;;;7.57;5.30;;;6.60;91.80;14.00;99350.00;;;;5017893;28;20925;-71
2021/03/17 03:17:11;;;;;;;8.27;5.13;;;6.60;91.80;13.90;99349.00;;;;5050474;28;20227;-70
2021/03/17 03:19:44;;;;;;;6.40;4.72;;;6.60;91.80;13.90;99349.00;;;;5018687;28;20684;-70
2021/03/17 03:22:10;;;;;;;6.45;4.55;;;6.60;91.80;13.90;99343.00;;;;5034358;28;20229;-70
2021/03/17 03:24:36;;;;;;;6.45;4.53;;;6.60;91.80;13.80;99335.00;;;;5051023;28;20185;-71
2021/03/17 03:27:02;;;;;;;7.50;4.93;;;6.60;91.80;13.90;99347.00;;;;5033657;28;20227;-71
2021/03/17 03:29:28;;;;;;;6.70;4.70;;;6.60;91.80;13.90;99353.00;;;;5034194;28;20175;-71
2021/03/17 03:31:54;;;;;;;7.23;5.20;;;6.60;91.80;14.00;99317.00;;;;5032959;28;20750;-71
2021/03/17 03:34:20;;;;;;;6.55;4.10;;;6.60;91.80;14.00;99348.00;;;;5051281;28;20300;-70
2021/03/17 03:36:45;;;;;;;6.23;4.77;;;6.60;91.80;13.90;99348.00;;;;5034003;28;20312;-70
2021/03/17 03:39:12;;;;;;;6.40;4.77;;;6.60;91.80;14.00;99349.00;;;;5050473;28;20458;-70
2021/03/17 03:41:38;;;;;;;7.05;5.00;;;6.50;91.80;13.90;99361.00;;;;5017520;28;20256;-70
2021/03/17 03:44:05;;;;;;;7.97;5.30;;;6.50;91.80;13.90;99351.00;;;;5034017;28;20197;-71
2021/03/17 03:46:32;;;;;;;6.53;4.70;;;6.60;91.80;14.00;99356.00;;;;5049616;28;20732;-71
2021/03/17 03:49:00;;;;;;;7.80;5.30;;;6.60;91.80;13.90;99366.00;;;;5034238;28;20182;-71
2021/03/17 03:51:26;;;;;;;6.05;4.65;;;6.50;91.80;13.70;99330.00;;;;5017540;28;20232;-71
2021/03/17 03:54:43;;;;;;;7.30;5.07;;;6.60;91.80;13.80;99371.00;;;;5033100;28;20182;-70
2021/03/17 03:57:18;;;;;;;7.68;5.25;;;6.60;91.80;13.80;99370.00;;;;5032910;28;20873;-70
2021/03/17 03:59:47;;;;;;;7.20;4.75;;;6.60;91.80;13.80;99374.00;;;;5018231;28;20250;-71
2021/03/17 04:02:21;;;;;;;7.05;5.10;;;6.50;91.80;13.90;99370.00;;;;5017245;28;20228;-71
2021/03/17 04:04:47;;;;;;;5.75;4.50;;;6.50;91.80;13.70;99373.00;;;;5018949;28;20181;-71
2021/03/17 04:07:14;;;;;;;6.63;5.20;;;6.50;91.80;14.00;99369.00;;;;5015999;28;20198;-71
2021/03/17 04:09:44;;;;;;;7.10;5.00;;;6.50;91.80;14.00;99377.00;;;;5017587;28;20538;-70
2021/03/17 04:12:11;;;;;;;7.55;5.35;;;6.50;91.80;13.90;99367.00;;;;5050012;28;20296;-71
2021/03/17 04:14:41;;;;;;;7.20;5.32;;;6.50;91.80;13.90;99350.00;;;;5016859;28;20197;-71
2021/03/17 04:17:18;;;;;;;8.45;5.78;;;6.50;91.80;13.80;99368.00;;;;5033910;28;20700;-72
2021/03/17 04:19:44;;;;;;;7.05;5.43;;;6.50;91.90;14.00;99368.00;;;;5034610;28;20181;-72
2021/03/17 04:22:10;;;;;;;6.80;5.03;;;6.50;91.80;14.00;99361.00;;;;5032756;28;20233;-71
2021/03/17 04:24:37;;;;;;;7.13;5.28;;;6.50;91.80;13.80;99358.00;;;;5034024;28;20649;-72
2021/03/17 04:27:03;;;;;;;6.82;4.93;;;6.50;91.80;13.80;99361.00;;;;5016112;28;20296;-71
2021/03/17 04:29:30;;;;;;;7.57;4.83;;;6.50;91.90;14.10;99348.00;;;;5017197;28;20783;-72
2021/03/17 04:31:56;;;;;;;8.65;5.90;;;6.50;91.90;13.90;99357.00;;;;5015973;28;20450;-71
2021/03/17 04:34:22;;;;;;;7.43;5.30;;;6.50;91.90;13.80;99366.00;;;;5015774;28;20183;-71
2021/03/17 04:36:48;;;;;;;5.63;4.67;;;6.50;91.90;13.80;99365.00;;;;5032583;28;20570;-71
2021/03/17 04:39:14;;;;;;;6.30;4.67;;;6.50;91.90;13.80;99360.00;;;;5032412;28;20201;-70
2021/03/17 04:41:40;;;;;;;7.70;5.53;;;6.50;91.90;13.80;99363.00;;;;5015313;28;20526;-71
2021/03/17 04:44:06;;;;;;;7.03;5.80;;;6.50;91.90;13.80;99366.00;;;;4999848;28;20265;-72
2021/03/17 04:46:31;;;;;;;6.07;4.60;;;6.50;91.90;13.70;99359.00;;;;5032076;28;20672;-71
2021/03/17 04:48:57;;;;;;;6.27;5.10;;;6.50;92.30;13.80;99358.00;;;;5015555;28;20255;-71
2021/03/17 04:51:23;;;;;;;6.30;4.53;;;6.50;91.90;13.60;99366.00;;;;5016559;28;20695;-71
2021/03/17 04:53:48;;;;;;;6.27;4.90;;;6.50;91.90;13.80;99365.00;;;;5032391;28;20428;-70
2021/03/17 04:56:14;;;;;;;7.13;5.53;;;6.50;91.90;13.50;99368.00;;;;5032018;28;20197;-71
2021/03/17 04:58:40;;;;;;;7.47;5.27;;;6.50;91.90;13.80;99372.00;;;;5015468;28;20277;-69
2021/03/17 05:01:07;;;;;;;7.23;5.60;;;6.50;91.90;13.90;99371.00;;;;5032797;28;20212;-69
2021/03/17 05:03:33;;;;;;;7.00;5.03;;;6.50;91.90;13.70;99382.00;;;;5015287;28;20785;-70
2021/03/17 05:05:58;;;;;;;7.40;4.97;;;6.50;91.90;13.80;99372.00;;;;5032733;28;20308;-69
2021/03/17 05:08:24;;;;;;;7.23;5.17;;;6.50;91.90;13.70;99382.00;;;;5032058;28;20184;-69
2021/03/17 05:10:50;;;;;;;7.10;5.27;;;6.50;91.90;13.80;99370.00;;;;5015045;28;20240;-69
2021/03/17 05:13:16;;;;;;;5.88;4.70;;;6.50;91.90;13.70;99368.00;;;;5031939;28;20553;-69
2021/03/17 05:15:43;;;;;;;6.32;4.80;;;6.50;91.90;13.80;99389.00;;;;5016410;28;20607;-69
2021/03/17 05:18:09;;;;;;;6.55;5.10;;;6.50;91.90;13.80;99384.00;;;;5031276;28;20645;-69
2021/03/17 05:20:35;;;;;;;6.93;5.30;;;6.50;91.90;13.80;99382.00;;;;5016064;28;20668;-70
2021/03/17 05:23:01;;;;;;;6.77;5.20;;;6.50;91.90;13.90;99392.00;;;;5031831;28;20186;-70
2021/03/17 05:25:27;;;;;;;6.80;5.03;;;6.50;91.90;13.80;99389.00;;;;5047764;28;20206;-70
2021/03/17 05:28:04;;;;;;;7.00;5.40;;;6.50;91.90;13.70;99388.00;;;;5015585;28;20415;-69
2021/03/17 05:30:37;;;;;;;7.50;5.47;;;6.50;91.90;13.70;99385.00;;;;5033018;28;20216;-69
2021/03/17 05:33:04;;;;;;;9.15;5.43;;;6.50;91.90;13.50;99360.00;;;;5016494;28;20178;-69
2021/03/17 05:35:30;;;;;;;6.75;5.00;;;6.40;91.90;13.80;99391.00;;;;5016038;28;20292;-69
2021/03/17 05:37:56;;;;;;;7.27;5.50;;;6.40;91.90;13.80;99398.00;;;;5047672;28;20723;-69
2021/03/17 05:40:22;;;;;;;7.10;5.33;;;6.50;91.90;13.70;99388.00;;;;5049721;28;20794;-69
2021/03/17 05:42:47;;;;;;;6.00;4.83;;;6.50;92.00;13.60;99379.00;;;;5048707;28;20188;-69
2021/03/17 05:45:19;;;;;;;6.87;4.97;;;6.50;91.90;13.90;99392.00;;;;5047766;28;20205;-69
2021/03/17 05:47:49;;;;;;;6.88;4.97;;;6.40;91.90;13.70;99394.00;;;;5000089;28;20186;-69
2021/03/17 05:50:18;;;;;;;7.47;4.90;;;6.50;91.90;13.60;99389.00;;;;5031397;28;20210;-69
2021/03/17 05:52:44;;;;;;;7.50;5.45;;;6.40;91.90;13.70;99393.00;;;;5051566;28;20181;-69
2021/03/17 05:55:11;;;;;;;6.10;4.77;;;6.50;92.00;13.70;99385.00;;;;5052711;28;20186;-69
2021/03/17 05:57:39;;;;;;;7.25;5.80;;;6.50;92.00;13.60;99403.00;;;;5036357;28;20186;-69
2021/03/17 06:00:11;;;;;;;6.10;4.20;;;6.40;91.90;13.70;99389.00;;;;5052619;28;20710;-70
2021/03/17 06:02:37;;;;;;;6.53;4.82;;;6.40;91.90;13.80;99396.00;;;;5036665;28;20190;-69
2021/03/17 06:05:08;;;;;;;6.25;4.95;;;6.40;92.00;13.70;99384.00;;;;5018757;28;20193;-69
2021/03/17 06:08:00;;;;;;;6.30;4.97;;;6.40;91.90;13.60;99387.00;;;;5002884;28;20182;-69
2021/03/17 06:10:28;;;;;;;6.40;5.00;;;6.40;91.90;13.50;99391.00;;;;5022482;28;20309;-69
2021/03/17 06:13:13;;;;;;;6.00;4.78;;;6.40;91.90;13.60;99394.00;;;;5052133;28;20320;-70
2021/03/17 06:15:41;;;;;;;8.07;5.50;;;6.40;91.90;13.40;99401.00;;;;5020468;28;20228;-70
2021/03/17 06:18:29;;;;;;;6.72;5.25;;;6.40;91.90;13.40;99390.00;;;;5019427;28;20192;-70
2021/03/17 06:20:56;;;;;;;7.28;4.85;;;6.40;91.90;13.60;99394.00;;;;5035084;28;20198;-70
2021/03/17 06:23:22;;;;;;;7.43;5.45;;;6.40;91.90;13.60;99391.00;;;;5052104;28;20182;-70
2021/03/17 06:25:49;;;;;;;7.77;4.93;;;6.40;91.90;13.40;99393.00;;;;5035531;28;20212;-70
2021/03/17 06:28:14;;;;;;;7.53;5.70;;;6.40;91.90;13.60;99390.00;;;;5051207;28;20267;-68
2021/03/17 06:30:41;;;;;;;7.67;5.70;;;6.40;91.90;13.40;99391.00;;;;5035430;28;20684;-69
2021/03/17 06:33:07;;;;;;;7.40;5.45;;;6.40;91.90;13.60;99388.00;;;;5034889;28;20186;-69
2021/03/17 06:35:33;;;;;;;6.63;5.30;;;6.40;91.90;13.50;99398.00;;;;5050841;28;20198;-69
2021/03/17 06:37:59;;;;;;;7.50;5.70;;;6.40;91.90;13.60;99408.00;;;;5035282;28;20174;-69
2021/03/17 06:40:33;;;;;;;7.05;5.25;;;6.40;91.90;13.70;99404.00;;;;5035052;28;20206;-69
2021/03/17 06:43:10;;;;;;;7.25;5.10;;;6.40;91.90;13.60;99409.00;;;;5034509;28;20432;-69
2021/03/17 06:45:46;;;;;;;6.68;5.00;;;6.40;91.90;13.60;99407.00;;;;5051230;28;20201;-69
2021/03/17 06:48:18;;;;;;;8.63;6.22;;;6.40;91.90;13.60;99416.00;;;;5034711;28;20539;-69
2021/03/17 06:50:45;;;;;;;7.20;5.50;;;6.40;91.90;13.50;99411.00;;;;5052809;28;20209;-69
2021/03/17 06:53:11;;;;;;;6.10;5.05;;;6.40;91.90;13.60;99424.00;;;;5034864;28;20261;-69
2021/03/17 06:55:36;;;;;;;8.17;5.43;;;6.40;91.90;13.60;99416.00;;;;5050251;28;20743;-69
2021/03/17 06:58:02;;;;;;;6.90;5.60;;;6.40;91.90;13.50;99412.00;;;;5018711;28;20797;-69
2021/03/17 07:00:35;;;;;;;6.50;5.23;;;6.40;92.20;13.50;99420.00;;;;5034325;28;20237;-69
2021/03/17 07:03:13;;;;;;;6.30;5.55;;;6.40;91.90;13.30;99434.00;;;;5033369;28;20192;-69
2021/03/17 07:05:44;;;;;;;6.72;5.35;;;6.40;91.90;13.30;99427.00;;;;5034207;28;20208;-69
2021/03/17 07:08:34;;;;;;;8.07;5.65;;;6.40;91.90;13.50;99435.00;;;;5018254;28;20182;-69
2021/03/17 07:11:01;;;;;;;7.55;5.10;;;6.40;91.90;13.30;99438.00;;;;5050962;28;20229;-68
2021/03/17 07:13:28;;;;;;;6.78;5.10;;;6.40;91.90;13.50;99435.00;;;;5051435;28;20178;-69
2021/03/17 07:15:58;;;;;;;9.23;5.80;;;6.40;91.90;13.40;99431.00;;;;5034455;28;20615;-69
2021/03/17 07:18:28;;;;;;;6.43;5.55;;;6.40;91.90;13.30;99431.00;;;;5050687;28;20683;-69
2021/03/17 07:20:55;;;;;;;8.00;5.68;;;6.40;91.90;13.30;99435.00;;;;5034153;28;20267;-69
2021/03/17 07:23:27;;;;;;;6.15;5.43;;;6.40;91.90;13.40;99433.00;;;;5033926;28;20194;-69
2021/03/17 07:26:19;;;;;;;7.88;5.93;;;6.40;91.90;13.40;99435.00;;;;5050975;28;20222;-69
2021/03/17 07:28:51;;;;;;;7.50;5.10;;;6.40;91.90;13.40;99431.00;;;;5065575;28;20334;-69
2021/03/17 07:31:33;;;;;;;7.53;5.25;;;6.40;92.00;13.30;99436.00;;;;5069261;28;20569;-69
2021/03/17 07:34:21;;;;;;;8.52;5.70;;;6.40;92.00;13.40;99431.00;;;;5053163;28;20182;-69
2021/03/17 07:37:04;;;;;;;6.85;5.00;;;6.40;92.00;13.30;99431.00;;;;5049658;28;20238;-70
2021/03/17 07:39:38;;;;;;;7.85;5.50;;;6.40;92.00;13.50;99435.00;;;;5032579;28;20607;-69
2021/03/17 07:42:09;;;;;;;7.13;4.95;;;6.40;92.00;13.40;99430.00;;;;5049951;28;20272;-69
2021/03/17 07:44:37;;;;;;;6.28;5.13;;;6.40;92.00;13.40;99419.00;;;;5031632;28;20200;-68
2021/03/17 07:47:09;;;;;;;7.43;5.80;;;6.40;92.00;13.60;99437.00;;;;5049103;28;20753;-69
2021/03/17 07:49:36;;;;;;;7.43;5.65;;;6.40;92.00;13.50;99415.00;;;;5049356;28;20190;-69
2021/03/17 07:52:02;;;;;;;6.28;4.95;;;6.40;92.00;13.50;99443.00;;;;5048995;28;20586;-69
2021/03/17 07:54:38;;;;;;;7.65;5.80;;;6.40;92.00;13.50;99444.00;;;;5032786;28;20540;-68
2021/03/17 07:57:06;;;;;;;6.95;5.20;;;6.40;92.00;13.50;99439.00;;;;5049745;28;20209;-68
2021/03/17 07:59:35;;;;;;;7.20;5.40;;;6.40;92.00;13.50;99442.00;;;;5014141;28;20193;-69
2021/03/17 08:02:01;;;;;;;6.78;5.32;;;6.40;92.00;13.50;99443.00;;;;5049396;28;20212;-69
2021/03/17 08:04:29;;;;;;;7.53;5.83;;;6.40;92.00;13.50;99441.00;;;;5049766;28;20186;-71
2021/03/17 08:06:59;;;;;;;7.30;5.78;;;6.40;92.00;13.60;99446.00;;;;5049773;28;20206;-69
2021/03/17 08:09:25;;;;;;;7.00;5.50;;;6.40;92.00;13.50;99436.00;;;;5050143;28;20194;-69
2021/03/17 08:11:52;;;;;;;6.50;5.80;;;6.40;92.00;13.60;99445.00;;;;5049881;28;20646;-69
2021/03/17 08:14:18;;;;;;;6.60;5.35;;;6.40;92.00;13.50;99444.00;;;;5033001;28;20678;-69
2021/03/17 08:16:44;;;;;;;7.57;5.63;;;6.50;92.00;13.50;99441.00;;;;5033068;28;20206;-69
2021/03/17 08:19:24;;;;;;;7.93;5.30;;;6.40;92.00;13.60;99439.00;;;;5049633;28;20265;-69
2021/03/17 08:22:01;;;;;;;6.75;5.60;;;6.40;92.00;13.50;99441.00;;;;5033012;28;20321;-69
2021/03/17 08:24:30;;;;;;;5.50;4.80;;;6.40;92.00;13.50;99443.00;;;;5048430;28;20240;-69
2021/03/17 08:26:57;;;;;;;6.53;5.07;;;6.50;92.00;13.50;99446.00;;;;5048668;28;20205;-69
2021/03/17 08:29:23;;;;;;;7.18;5.00;;;6.50;92.00;13.50;99442.00;;;;5033171;28;20273;-69
2021/03/17 08:31:52;;;;;;;6.37;4.80;;;6.50;92.00;13.60;99431.00;;;;5048960;28;20792;-70
2021/03/17 08:34:18;;;;;;;6.32;5.22;;;6.50;92.20;13.60;99446.00;;;;5049074;28;20937;-69
2021/03/17 08:36:46;;;;;;;7.40;5.20;;;6.40;92.00;13.60;99437.00;;;;5049967;28;20324;-69
2021/03/17 08:39:14;;;;;;;6.85;5.70;;;6.40;92.00;13.50;99432.00;;;;5050536;28;20178;-70
2021/03/17 08:41:41;;;;;;;6.95;5.50;;;6.50;92.00;13.70;99433.00;;;;5032026;28;20204;-69
2021/03/17 08:44:14;;;;;;;7.53;5.80;;;6.50;92.00;13.70;99444.00;;;;5048166;28;20684;-70
2021/03/17 08:46:40;;;;;;;7.28;5.15;;;6.40;91.90;13.70;99445.00;;;;5047707;28;20202;-70
2021/03/17 08:49:07;;;;;;;6.97;5.63;;;6.50;92.00;13.70;99436.00;;;;5032107;28;20343;-70
2021/03/17 08:51:45;;;;;;;6.93;5.60;;;6.50;92.00;13.80;99446.00;;;;5030632;28;20531;-70
2021/03/17 08:54:33;;;;;;;7.50;5.40;;;6.50;92.00;13.70;99433.00;;;;5051263;28;20268;-70
2021/03/17 08:57:03;;;;;;;6.85;5.63;;;6.50;92.00;13.70;99437.00;;;;5050470;28;20202;-70
2021/03/17 08:59:47;;;;;;;6.95;5.50;;;6.50;92.00;13.70;99442.00;;;;5052522;28;20665;-70
2021/03/17 09:02:25;;;;;;;7.25;4.90;;;6.50;92.00;13.70;99443.00;;;;5067292;28;20201;-70
2021/03/17 09:04:54;;;;;;;6.75;5.20;;;6.50;92.00;13.70;99432.00;;;;5069214;28;20177;-70
2021/03/17 09:07:22;;;;;;;7.00;5.35;;;6.50;92.00;13.80;99430.00;;;;5067603;28;20806;-70
2021/03/17 09:09:48;;;;;;;6.78;4.90;;;6.50;92.00;13.70;99440.00;;;;5045478;28;20747;-69
2021/03/17 09:12:14;;;;;;;7.80;5.17;;;6.50;91.90;13.70;99430.00;;;;5047986;28;20214;-70
2021/03/17 09:14:39;;;;;;;6.22;5.10;;;6.50;91.90;13.60;99439.00;;;;5048456;28;20188;-70
2021/03/17 09:17:15;;;;;;;8.40;6.03;;;6.50;91.90;13.70;99434.00;;;;5047872;28;20201;-69
2021/03/17 09:20:04;;;;;;;8.27;5.85;;;6.50;91.90;13.70;99432.00;;;;5048520;28;20182;-69
2021/03/17 09:22:45;;;;;;;6.45;4.95;;;6.50;91.90;13.70;99421.00;;;;5048060;28;20672;-70
2021/03/17 09:25:28;;;;;;;6.28;5.00;;;6.50;91.90;13.60;99431.00;;;;5030826;28;20202;-70
2021/03/17 09:28:02;;;;;;;6.90;5.25;;;6.50;91.90;13.90;99442.00;;;;5031257;28;20682;-69
2021/03/17 09:30:41;;;;;;;5.90;5.10;;;6.50;91.90;13.90;99443.00;;;;5047237;28;20259;-69
2021/03/17 09:33:16;;;;;;;6.65;5.30;;;6.50;91.90;13.90;99427.00;;;;5047638;28;20548;-70
2021/03/17 09:35:46;;;;;;;8.00;5.35;;;6.50;91.90;13.90;99432.00;;;;5047181;28;20264;-70
2021/03/17 09:38:14;;;;;;;9.82;5.88;;;6.50;91.90;14.00;99444.00;;;;5047075;28;20655;-69
2021/03/17 09:40:46;;;;;;;6.97;5.28;;;6.50;91.90;13.90;99444.00;;;;5051284;28;20291;-69
2021/03/17 09:43:26;;;;;;;6.18;4.95;;;6.50;91.90;13.90;99444.00;;;;5027525;28;20204;-70
2021/03/17 09:45:52;;;;;;;6.65;4.80;;;6.50;91.90;13.90;99440.00;;;;5067534;28;20300;-70
2021/03/17 09:48:19;;;;;;;6.67;4.97;;;6.50;91.90;13.90;99444.00;;;;5051035;28;20284;-69
2021/03/17 09:50:46;;;;;;;6.05;4.70;;;6.50;91.90;13.90;99420.00;;;;5067996;28;20484;-69
2021/03/17 09:53:14;;;;;;;7.00;5.38;;;6.50;91.90;14.10;99437.00;;;;5067459;28;20336;-70
2021/03/17 09:55:40;;;;;;;6.40;4.82;;;6.50;91.90;14.00;99435.00;;;;5067059;28;20698;-69
2021/03/17 09:58:06;;;;;;;5.87;4.93;;;6.60;91.90;13.90;99434.00;;;;5065674;28;20212;-69
2021/03/17 10:00:33;;;;;;;6.80;5.22;;;6.50;91.90;14.00;99434.00;;;;5047514;28;20498;-70
2021/03/17 10:03:00;;;;;;;5.93;4.88;;;6.50;91.90;13.90;99439.00;;;;5047401;28;20217;-70
2021/03/17 10:05:26;;;;;;;6.05;4.32;;;6.50;91.90;14.00;99426.00;;;;5047283;28;20206;-70
2021/03/17 10:07:52;;;;;;;7.88;5.13;;;6.50;91.90;13.90;99445.00;;;;5047250;28;20182;-71
2021/03/17 10:10:18;;;;;;;5.70;4.80;;;6.50;91.90;13.90;99442.00;;;;5047078;28;20213;-70
2021/03/17 10:12:44;;;;;;;5.53;4.05;;;6.60;91.90;14.00;99445.00;;;;5014246;28;20548;-70
2021/03/17 10:15:12;;;;;;;5.77;4.90;;;6.60;91.90;14.00;99439.00;;;;5047688;28;20214;-70
2021/03/17 10:17:38;;;;;;;6.65;5.03;;;6.50;91.90;13.90;99440.00;;;;5030319;28;20190;-70
2021/03/17 10:20:19;;;;;;;6.30;4.85;;;6.60;91.90;14.00;99438.00;;;;5047338;28;20186;-70
2021/03/17 10:22:46;;;;;;;6.30;4.85;;;6.60;92.30;13.70;99436.00;;;;5030603;28;20181;-70
2021/03/17 10:25:19;;;;;;;6.45;4.65;;;6.60;91.90;13.90;99437.00;;;;5030580;28;20692;-70
2021/03/17 10:27:50;;;;;;;5.55;4.07;;;6.60;91.90;13.80;99446.00;;;;5015205;28;20615;-70
2021/03/17 10:30:18;;;;;;;5.43;4.45;;;6.60;91.90;13.80;99441.00;;;;5047485;28;20205;-70
2021/03/17 10:32:47;;;;;;;5.38;4.25;;;6.60;91.90;14.00;99439.00;;;;5046018;28;20185;-70
2021/03/17 10:35:15;;;;;;;5.75;4.10;;;6.60;91.90;13.90;99437.00;;;;5053772;28;20212;-69
2021/03/17 10:37:41;;;;;;;5.80;4.30;;;6.60;91.90;14.00;99443.00;;;;5050406;28;20248;-69
2021/03/17 10:40:14;;;;;;;6.03;4.63;;;6.60;91.90;14.00;99438.00;;;;5037235;28;20209;-70
2021/03/17 10:42:48;;;;;;;6.25;4.55;;;6.60;91.90;14.00;99420.00;;;;5070971;28;20766;-70
2021/03/17 10:45:20;;;;;;;6.00;4.57;;;6.60;91.90;14.10;99399.00;;;;5054727;28;20212;-70
2021/03/17 10:47:46;;;;;;;5.80;4.40;;;6.60;91.90;14.10;99423.00;;;;5054123;28;20185;-70
2021/03/17 10:50:32;;;;;;;5.57;3.60;;;6.60;92.00;14.10;99428.00;;;;5037599;28;20258;-69
2021/03/17 10:52:58;;;;;;;6.18;4.03;;;6.60;91.90;14.00;99426.00;;;;5053746;28;20410;-70
2021/03/17 10:55:29;;;;;;;5.20;4.37;;;6.60;92.00;14.00;99436.00;;;;5052856;28;20205;-69
2021/03/17 10:58:09;;;;;;;5.10;4.03;;;6.60;92.00;14.10;99431.00;;;;5054424;28;20239;-69
2021/03/17 11:00:35;;;;;;;5.53;4.32;;;6.60;91.90;14.00;99439.00;;;;5037312;28;20602;-70
2021/03/17 11:03:01;;;;;;;5.40;4.00;;;6.60;91.90;13.90;99435.00;;;;5053625;28;20188;-69
2021/03/17 11:05:30;;;;;;;6.27;4.73;;;6.60;91.90;14.10;99435.00;;;;5054665;28;20474;-70
2021/03/17 11:08:04;;;;;;;5.38;4.43;;;6.70;92.00;14.10;99424.00;;;;5087749;28;20177;-69
2021/03/17 11:10:46;;;;;;;5.32;3.80;;;6.60;91.90;14.10;99428.00;;;;5072159;28;20684;-69
2021/03/17 11:13:30;;;;;;;6.40;4.78;;;6.60;91.90;14.00;99419.00;;;;5071978;28;20447;-70
2021/03/17 11:15:59;;;;;;;6.40;3.80;;;6.60;91.90;14.10;99423.00;;;;5054113;28;20205;-69